Time;durP1;ratioP1;P1;durP2;ratioP2;P2;SDS_P1;SDS_P2;PMS_P1;PMS_P2;Temp;Humidity;BMP_temperature;BMP_pressure;BME280_temperature;BME280_humidity;BME280_pressure;Samples;Min_cycle;Max_cycle;Signal;HPM_P1;HPM_P2
2022/05/01 00:00:40;;;;;;;10.27;7.43;;;;;;;;;;5031799;28;20238;-87
2022/05/01 00:03:07;;;;;;;8.77;7.60;;;;;;;;;;5032171;28;20213;-87
2022/05/01 00:05:34;;;;;;;10.43;7.97;;;;;;;;;;5031610;28;20261;-87
2022/05/01 00:08:04;;;;;;;10.27;6.97;;;;;;;;;;5044189;28;20187;-87
2022/05/01 00:10:31;;;;;;;9.63;6.97;;;;;;;;;;5051596;28;20269;-87
2022/05/01 00:12:58;;;;;;;9.97;7.53;;;;;;;;;;5052668;28;20233;-87
2022/05/01 00:15:25;;;;;;;9.50;7.73;;;;;;;;;;5051118;28;20235;-88
2022/05/01 00:17:53;;;;;;;11.40;7.50;;;;;;;;;;5051210;28;20442;-87
2022/05/01 00:20:20;;;;;;;10.27;8.00;;;;;;;;;;5049775;28;20230;-88
2022/05/01 00:22:47;;;;;;;12.50;8.10;;;;;;;;;;5050923;28;20233;-87
2022/05/01 00:25:14;;;;;;;10.57;7.73;;;;;;;;;;5052556;28;20245;-87
2022/05/01 00:27:41;;;;;;;9.63;7.17;;;;;;;;;;5052581;28;20203;-87
2022/05/01 00:30:09;;;;;;;10.77;7.53;;;;;;;;;;5046839;28;20246;-87
2022/05/01 00:38:03;;;;;;;9.67;7.23;;;;;;;;;;5035465;28;20709;-87
2022/05/01 00:40:30;;;;;;;9.93;7.40;;;;;;;;;;5031653;28;20578;-87
2022/05/01 00:43:01;;;;;;;10.93;7.73;;;;;;;;;;5032015;28;20202;-87
2022/05/01 00:45:28;;;;;;;11.47;7.90;;;;;;;;;;5031354;28;20242;-86
2022/05/01 00:47:55;;;;;;;13.00;8.33;;;;;;;;;;5031848;28;20210;-87
2022/05/01 00:50:24;;;;;;;14.67;10.47;;;;;;;;;;5031147;28;20237;-87
2022/05/01 00:52:51;;;;;;;10.00;8.10;;;;;;;;;;5033450;28;20226;-87
2022/05/01 00:55:18;;;;;;;12.70;8.00;;;;;;;;;;5035075;28;20280;-87
2022/05/01 00:57:47;;;;;;;12.83;7.83;;;;;;;;;;5035570;28;20206;-87
2022/05/01 01:00:14;;;;;;;10.20;8.43;;;;;;;;;;5033713;28;20283;-87
2022/05/01 01:02:43;;;;;;;13.60;7.70;;;;;;;;;;5047035;28;20289;-86
2022/05/01 01:05:11;;;;;;;9.87;8.23;;;;;;;;;;5054359;28;20238;-87
2022/05/01 01:07:40;;;;;;;9.03;7.90;;;;;;;;;;5033266;28;20215;-86
2022/05/01 01:10:07;;;;;;;13.00;7.77;;;;;;;;;;5055285;28;20240;-86
2022/05/01 01:15:20;;;;;;;10.50;8.97;;;;;;;;;;5067669;28;20240;-85
2022/05/01 01:17:52;;;;;;;9.43;7.77;;;;;;;;;;5067104;28;20559;-84
2022/05/01 01:20:22;;;;;;;16.00;8.40;;;;;;;;;;5057125;28;20233;-87
2022/05/01 01:22:51;;;;;;;9.80;8.00;;;;;;;;;;5055224;28;20233;-87
2022/05/01 01:25:20;;;;;;;10.17;8.47;;;;;;;;;;5054110;28;20265;-87
2022/05/01 01:27:47;;;;;;;8.97;8.10;;;;;;;;;;5055202;28;20545;-87
2022/05/01 01:33:00;;;;;;;9.10;7.53;;;;;;;;;;5054727;28;20685;-87
2022/05/01 01:35:29;;;;;;;10.03;7.60;;;;;;;;;;5054106;28;20720;-87
2022/05/01 01:37:57;;;;;;;8.50;7.60;;;;;;;;;;5054827;28;20292;-86
2022/05/01 01:40:25;;;;;;;9.77;8.20;;;;;;;;;;5053823;28;20258;-87
2022/05/01 01:42:54;;;;;;;11.20;8.30;;;;;;;;;;5054633;28;20213;-86
2022/05/01 01:45:21;;;;;;;11.20;8.47;;;;;;;;;;5053785;28;20241;-87
2022/05/01 01:47:49;;;;;;;13.23;8.50;;;;;;;;;;5054495;28;20206;-86
2022/05/01 01:50:17;;;;;;;11.00;8.53;;;;;;;;;;5053875;28;20321;-86
2022/05/01 01:52:46;;;;;;;10.90;8.03;;;;;;;;;;5054171;28;20257;-86
2022/05/01 01:55:14;;;;;;;11.67;7.97;;;;;;;;;;5053696;28;20336;-87
2022/05/01 01:57:42;;;;;;;11.93;8.47;;;;;;;;;;5054431;28;20210;-87
2022/05/01 02:00:10;;;;;;;8.97;8.10;;;;;;;;;;5053612;28;20303;-87
2022/05/01 02:02:37;;;;;;;9.03;8.13;;;;;;;;;;5054270;28;20238;-87
2022/05/01 02:05:04;;;;;;;10.40;8.00;;;;;;;;;;5052535;28;20233;-87
2022/05/01 02:07:32;;;;;;;9.47;8.50;;;;;;;;;;5053788;28;20305;-87
2022/05/01 02:09:59;;;;;;;9.87;8.80;;;;;;;;;;5053349;28;20263;-87
2022/05/01 02:12:27;;;;;;;11.40;8.30;;;;;;;;;;5054038;28;20222;-87
2022/05/01 02:14:54;;;;;;;14.33;8.57;;;;;;;;;;5053641;28;20240;-87
2022/05/01 02:17:21;;;;;;;9.70;8.33;;;;;;;;;;5053634;28;20241;-87
2022/05/01 02:19:48;;;;;;;10.87;8.30;;;;;;;;;;5053321;28;20335;-87
2022/05/01 02:22:15;;;;;;;11.93;8.07;;;;;;;;;;5053767;28;20206;-87
2022/05/01 02:24:43;;;;;;;11.97;8.37;;;;;;;;;;5053054;28;20265;-87
2022/05/01 02:27:10;;;;;;;9.93;7.93;;;;;;;;;;5053659;28;20298;-87
2022/05/01 02:29:38;;;;;;;10.40;7.90;;;;;;;;;;5052463;28;20265;-87
2022/05/01 02:32:05;;;;;;;11.83;8.37;;;;;;;;;;5059385;28;20210;-87
2022/05/01 02:34:32;;;;;;;8.73;7.20;;;;;;;;;;5056313;28;20234;-88
2022/05/01 02:36:59;;;;;;;8.20;7.40;;;;;;;;;;5053644;28;20625;-87
2022/05/01 02:39:27;;;;;;;8.50;7.70;;;;;;;;;;5053119;28;20580;-87
2022/05/01 02:41:54;;;;;;;11.17;7.67;;;;;;;;;;5056896;28;20209;-87
2022/05/01 02:44:21;;;;;;;8.40;7.60;;;;;;;;;;5052984;28;20233;-87
2022/05/01 02:46:49;;;;;;;10.83;7.77;;;;;;;;;;5053344;28;20287;-87
2022/05/01 02:49:16;;;;;;;9.00;7.77;;;;;;;;;;5052789;28;20241;-87
2022/05/01 02:51:43;;;;;;;9.70;7.53;;;;;;;;;;5053122;28;20697;-87
2022/05/01 02:54:10;;;;;;;8.77;7.87;;;;;;;;;;5052752;28;20246;-87
2022/05/01 02:56:38;;;;;;;10.17;7.73;;;;;;;;;;5053037;28;20245;-86
2022/05/01 02:59:09;;;;;;;9.93;7.63;;;;;;;;;;5052673;28;20269;-87
2022/05/01 03:01:36;;;;;;;9.03;7.63;;;;;;;;;;5053277;28;20619;-87
2022/05/01 03:04:05;;;;;;;10.93;7.93;;;;;;;;;;5052689;28;20233;-87
2022/05/01 03:06:33;;;;;;;10.47;7.80;;;;;;;;;;5052649;28;20250;-87
2022/05/01 03:09:01;;;;;;;8.90;7.70;;;;;;;;;;5053486;28;20230;-87
2022/05/01 03:11:28;;;;;;;7.57;6.83;;;;;;;;;;5053140;28;20202;-87
2022/05/01 03:13:55;;;;;;;10.13;7.70;;;;;;;;;;5052373;28;20222;-86
2022/05/01 03:16:22;;;;;;;9.27;7.43;;;;;;;;;;5053163;28;20583;-87
2022/05/01 03:24:20;;;;;;;8.47;7.43;;;;;;;;;;5052185;28;20344;-87
2022/05/01 03:26:48;;;;;;;7.80;6.60;;;;;;;;;;5052945;28;20230;-86
2022/05/01 03:29:15;;;;;;;11.03;7.90;;;;;;;;;;5052223;28;20257;-88
2022/05/01 03:31:42;;;;;;;9.80;7.77;;;;;;;;;;5053432;28;20210;-88
2022/05/01 03:34:09;;;;;;;10.80;8.07;;;;;;;;;;5052759;28;20234;-86
2022/05/01 03:36:39;;;;;;;14.67;8.80;;;;;;;;;;5053047;28;20222;-87
2022/05/01 03:39:06;;;;;;;9.17;8.13;;;;;;;;;;5052183;28;20241;-86
2022/05/01 03:41:33;;;;;;;8.43;7.53;;;;;;;;;;5053149;28;20229;-87
2022/05/01 03:44:00;;;;;;;8.97;8.03;;;;;;;;;;5052699;28;20230;-87
2022/05/01 03:46:27;;;;;;;9.17;8.23;;;;;;;;;;5052885;28;20222;-85
2022/05/01 03:48:54;;;;;;;8.93;8.03;;;;;;;;;;5052907;28;20283;-87
2022/05/01 03:51:21;;;;;;;8.80;7.90;;;;;;;;;;5053415;28;20225;-86
2022/05/01 03:53:50;;;;;;;10.73;8.90;;;;;;;;;;5051987;28;20230;-87
2022/05/01 03:56:17;;;;;;;10.83;8.90;;;;;;;;;;5052326;28;20284;-87
2022/05/01 03:58:44;;;;;;;10.73;8.73;;;;;;;;;;5051409;28;20221;-86
2022/05/01 04:01:11;;;;;;;11.93;8.97;;;;;;;;;;5051922;28;20209;-86
2022/05/01 04:03:38;;;;;;;13.87;8.60;;;;;;;;;;5051846;28;20213;-86
2022/05/01 04:06:06;;;;;;;11.53;8.53;;;;;;;;;;5068001;23;20237;-82
2022/05/01 04:08:33;;;;;;;11.87;9.23;;;;;;;;;;5070211;28;20224;-81
2022/05/01 04:11:02;;;;;;;11.23;9.30;;;;;;;;;;5080674;28;20625;-82
2022/05/01 04:13:29;;;;;;;10.43;8.80;;;;;;;;;;5082535;28;20233;-81
2022/05/01 04:15:56;;;;;;;11.80;9.57;;;;;;;;;;5082760;28;20237;-82
2022/05/01 04:18:23;;;;;;;12.77;9.40;;;;;;;;;;5082911;28;20205;-81
2022/05/01 04:20:52;;;;;;;12.07;9.27;;;;;;;;;;5083034;28;20236;-83
2022/05/01 04:23:19;;;;;;;10.37;9.30;;;;;;;;;;5087586;28;20273;-81
2022/05/01 04:25:46;;;;;;;14.23;9.63;;;;;;;;;;5085229;28;20247;-82
2022/05/01 04:28:14;;;;;;;11.40;8.50;;;;;;;;;;5085405;28;20597;-81
2022/05/01 04:30:42;;;;;;;9.17;8.27;;;;;;;;;;5087110;28;20244;-82
2022/05/01 04:33:10;;;;;;;9.77;8.77;;;;;;;;;;5086971;28;20225;-81
2022/05/01 04:35:38;;;;;;;12.27;9.70;;;;;;;;;;5087209;28;20240;-81
2022/05/01 04:38:07;;;;;;;11.53;9.33;;;;;;;;;;5086770;28;20331;-82
2022/05/01 04:40:35;;;;;;;13.20;10.00;;;;;;;;;;5086268;28;20233;-83
2022/05/01 04:43:03;;;;;;;11.63;10.40;;;;;;;;;;5087482;28;20212;-83
2022/05/01 04:45:32;;;;;;;11.47;10.27;;;;;;;;;;5086626;28;20233;-81
2022/05/01 04:47:59;;;;;;;11.30;10.10;;;;;;;;;;5087778;28;20232;-81
2022/05/01 04:50:26;;;;;;;12.73;10.27;;;;;;;;;;5087475;28;20233;-81
2022/05/01 04:52:53;;;;;;;11.97;10.77;;;;;;;;;;5087457;28;20209;-81
2022/05/01 04:55:20;;;;;;;13.43;10.70;;;;;;;;;;5086443;28;20232;-82
2022/05/01 04:57:47;;;;;;;18.37;10.83;;;;;;;;;;5084974;28;20225;-83
2022/05/01 05:00:15;;;;;;;12.43;9.70;;;;;;;;;;5082639;28;20243;-83
2022/05/01 05:02:44;;;;;;;19.10;10.60;;;;;;;;;;5047021;28;20298;-82
2022/05/01 05:05:12;;;;;;;15.77;10.30;;;;;;;;;;5041981;28;20234;-84
2022/05/01 05:07:40;;;;;;;16.03;11.20;;;;;;;;;;5042827;28;20238;-81
2022/05/01 05:10:07;;;;;;;13.70;10.90;;;;;;;;;;5046033;28;20238;-82
2022/05/01 05:12:35;;;;;;;13.67;10.77;;;;;;;;;;5046735;28;20289;-81
2022/05/01 05:15:04;;;;;;;13.33;10.40;;;;;;;;;;5046276;28;20238;-80
2022/05/01 05:17:31;;;;;;;13.97;9.67;;;;;;;;;;5046278;28;20227;-81
2022/05/01 05:20:00;;;;;;;14.00;10.13;;;;;;;;;;5046524;28;20288;-81
2022/05/01 05:22:28;;;;;;;10.67;9.40;;;;;;;;;;5046550;28;20207;-82
2022/05/01 05:24:55;;;;;;;12.03;10.50;;;;;;;;;;5047054;28;20254;-82
2022/05/01 05:27:25;;;;;;;11.70;9.77;;;;;;;;;;5046085;28;20237;-81
2022/05/01 05:29:52;;;;;;;15.10;10.43;;;;;;;;;;5045337;28;20230;-81
2022/05/01 05:32:19;;;;;;;15.20;10.77;;;;;;;;;;5045998;28;20679;-83
2022/05/01 05:34:46;;;;;;;14.37;10.57;;;;;;;;;;5043887;28;20250;-82
2022/05/01 05:37:15;;;;;;;11.93;10.23;;;;;;;;;;5037695;28;20238;-83
2022/05/01 05:39:42;;;;;;;13.13;10.60;;;;;;;;;;5036718;28;20245;-81
2022/05/01 05:42:10;;;;;;;14.03;10.33;;;;;;;;;;5037641;28;20553;-82
2022/05/01 05:44:37;;;;;;;11.37;10.23;;;;;;;;;;5038636;28;20325;-81
2022/05/01 05:47:04;;;;;;;12.90;9.87;;;;;;;;;;5038671;28;20230;-82
2022/05/01 05:49:32;;;;;;;11.87;9.97;;;;;;;;;;5038911;28;20245;-82
2022/05/01 05:52:00;;;;;;;11.10;9.20;;;;;;;;;;5039510;28;20237;-82
2022/05/01 05:54:28;;;;;;;13.70;8.87;;;;;;;;;;5039322;28;20667;-81
2022/05/01 05:56:55;;;;;;;11.60;9.30;;;;;;;;;;5037855;28;20230;-82
2022/05/01 05:59:23;;;;;;;10.27;9.27;;;;;;;;;;5033981;28;20254;-84
2022/05/01 06:01:50;;;;;;;14.20;9.77;;;;;;;;;;5062452;28;20264;-83
2022/05/01 06:04:17;;;;;;;13.43;9.57;;;;;;;;;;5069454;28;20240;-82
2022/05/01 06:06:44;;;;;;;11.10;9.27;;;;;;;;;;5085454;28;20229;-82
2022/05/01 06:09:13;;;;;;;11.00;9.10;;;;;;;;;;5074161;28;20225;-82
2022/05/01 06:11:41;;;;;;;11.20;9.17;;;;;;;;;;5074739;28;20211;-81
2022/05/01 06:14:10;;;;;;;10.47;9.37;;;;;;;;;;5073608;28;20237;-82
2022/05/01 06:16:38;;;;;;;12.17;9.50;;;;;;;;;;5074874;28;20700;-81
2022/05/01 06:19:05;;;;;;;10.53;9.00;;;;;;;;;;5073764;28;20244;-81
2022/05/01 06:21:32;;;;;;;11.57;9.60;;;;;;;;;;5074669;28;20213;-80
2022/05/01 06:23:59;;;;;;;11.33;8.90;;;;;;;;;;5073602;28;20233;-81
2022/05/01 06:26:26;;;;;;;10.83;9.40;;;;;;;;;;5074025;28;20233;-81
2022/05/01 06:28:55;;;;;;;12.93;9.87;;;;;;;;;;5075357;28;20208;-81
2022/05/01 06:31:22;;;;;;;11.57;8.97;;;;;;;;;;5076290;28;20612;-81
2022/05/01 06:33:49;;;;;;;10.50;9.00;;;;;;;;;;5075385;28;20233;-81
2022/05/01 06:36:17;;;;;;;11.13;9.93;;;;;;;;;;5077117;28;20280;-81
2022/05/01 06:38:44;;;;;;;12.77;9.97;;;;;;;;;;5074799;28;20270;-80
2022/05/01 06:41:11;;;;;;;10.60;9.50;;;;;;;;;;5077498;28;20196;-81
2022/05/01 06:43:38;;;;;;;12.50;9.73;;;;;;;;;;5075502;28;20205;-80
2022/05/01 06:46:07;;;;;;;13.23;9.90;;;;;;;;;;5075661;28;20221;-81
2022/05/01 06:48:34;;;;;;;12.67;9.90;;;;;;;;;;5074729;28;20205;-80
2022/05/01 06:51:01;;;;;;;10.23;9.23;;;;;;;;;;5073484;28;20233;-79
2022/05/01 06:53:28;;;;;;;10.27;8.20;;;;;;;;;;5076083;28;20210;-80
2022/05/01 06:55:56;;;;;;;12.50;9.13;;;;;;;;;;5076387;28;20704;-80
2022/05/01 06:58:23;;;;;;;13.57;9.70;;;;;;;;;;5077494;28;20213;-80
2022/05/01 07:00:52;;;;;;;9.43;8.30;;;;;;;;;;5071614;28;20221;-80
2022/05/01 07:03:20;;;;;;;12.13;9.20;;;;;;;;;;5055407;28;20206;-80
2022/05/01 07:05:47;;;;;;;8.60;7.67;;;;;;;;;;5056989;28;20242;-80
2022/05/01 07:08:14;;;;;;;13.63;8.87;;;;;;;;;;5059935;28;20245;-80
2022/05/01 07:10:41;;;;;;;9.10;8.20;;;;;;;;;;5059238;28;20234;-80
2022/05/01 07:13:09;;;;;;;12.10;9.60;;;;;;;;;;5058865;28;20276;-80
2022/05/01 07:15:36;;;;;;;9.43;7.50;;;;;;;;;;5055365;28;20282;-80
2022/05/01 07:18:04;;;;;;;11.10;8.23;;;;;;;;;;5076084;28;20236;-85
2022/05/01 07:20:34;;;;;;;9.73;8.73;;;;;;;;;;5076676;28;20229;-85
2022/05/01 07:23:01;;;;;;;12.20;8.83;;;;;;;;;;5058167;28;20788;-80
2022/05/01 07:25:28;;;;;;;8.40;7.57;;;;;;;;;;5055153;28;20627;-80
2022/05/01 07:27:55;;;;;;;9.37;7.47;;;;;;;;;;5054867;28;20253;-80
2022/05/01 07:30:22;;;;;;;8.80;7.47;;;;;;;;;;5052930;28;20237;-79
2022/05/01 07:32:49;;;;;;;10.17;7.53;;;;;;;;;;5054036;28;20225;-80
2022/05/01 07:35:16;;;;;;;10.07;7.70;;;;;;;;;;5053110;28;20284;-79
2022/05/01 07:37:45;;;;;;;9.60;7.77;;;;;;;;;;5053111;28;20222;-80
2022/05/01 07:40:12;;;;;;;10.27;8.60;;;;;;;;;;5052200;28;20244;-80
2022/05/01 07:42:39;;;;;;;8.80;7.57;;;;;;;;;;5053274;28;20260;-80
2022/05/01 07:45:06;;;;;;;8.63;7.73;;;;;;;;;;5052720;28;20237;-79
2022/05/01 07:47:33;;;;;;;10.30;7.23;;;;;;;;;;5052695;28;20768;-79
2022/05/01 07:50:00;;;;;;;8.83;7.47;;;;;;;;;;5052347;28;20241;-80
2022/05/01 07:52:28;;;;;;;11.50;7.97;;;;;;;;;;5052885;28;20206;-81
2022/05/01 07:54:57;;;;;;;11.63;7.03;;;;;;;;;;5054273;28;20709;-80
2022/05/01 07:57:26;;;;;;;10.40;7.30;;;;;;;;;;5052610;28;20233;-79
2022/05/01 07:59:53;;;;;;;10.03;7.10;;;;;;;;;;5052577;28;20287;-80
2022/05/01 08:02:20;;;;;;;9.10;7.37;;;;;;;;;;5052926;28;20245;-79
2022/05/01 08:04:47;;;;;;;10.20;7.10;;;;;;;;;;5052105;28;20241;-79
2022/05/01 08:07:15;;;;;;;9.33;6.80;;;;;;;;;;5056495;28;20236;-82
2022/05/01 08:09:42;;;;;;;11.13;7.10;;;;;;;;;;5055666;28;20233;-82
2022/05/01 08:12:11;;;;;;;8.07;7.17;;;;;;;;;;5055045;28;20211;-80
2022/05/01 08:14:41;;;;;;;7.93;7.10;;;;;;;;;;5056139;28;20317;-80
2022/05/01 08:17:08;;;;;;;10.50;7.00;;;;;;;;;;5055738;28;20229;-80
2022/05/01 08:22:20;;;;;;;10.43;7.03;;;;;;;;;;5056598;28;20255;-82
2022/05/01 08:24:47;;;;;;;9.90;7.83;;;;;;;;;;5065405;28;20291;-81
2022/05/01 08:27:16;;;;;;;7.60;6.40;;;;;;;;;;5066463;28;20228;-83
2022/05/01 08:29:43;;;;;;;9.60;7.33;;;;;;;;;;5064452;28;20230;-83
2022/05/01 08:32:10;;;;;;;8.47;7.40;;;;;;;;;;5065425;28;20267;-81
2022/05/01 08:34:37;;;;;;;9.43;7.17;;;;;;;;;;5064525;28;20257;-83
2022/05/01 08:37:05;;;;;;;9.73;6.80;;;;;;;;;;5065487;28;20226;-84
2022/05/01 08:39:32;;;;;;;9.83;6.60;;;;;;;;;;5064499;28;20313;-80
2022/05/01 08:42:00;;;;;;;8.63;7.13;;;;;;;;;;5064592;28;20228;-81
2022/05/01 08:44:32;;;;;;;8.23;6.27;;;;;;;;;;5063515;28;20234;-83
2022/05/01 08:47:08;;;;;;;8.83;6.60;;;;;;;;;;5064165;28;20221;-82
2022/05/01 08:49:35;;;;;;;8.33;6.03;;;;;;;;;;5062780;28;20233;-81
2022/05/01 08:52:03;;;;;;;9.90;7.37;;;;;;;;;;5064638;28;20205;-81
2022/05/01 08:54:32;;;;;;;9.00;6.60;;;;;;;;;;5065259;28;20234;-81
2022/05/01 08:57:01;;;;;;;8.57;6.60;;;;;;;;;;5065711;28;20234;-84
2022/05/01 08:59:29;;;;;;;13.93;7.13;;;;;;;;;;5064313;28;20635;-82
2022/05/01 09:01:58;;;;;;;7.43;5.73;;;;;;;;;;5064953;28;20263;-81
2022/05/01 09:04:26;;;;;;;8.73;6.97;;;;;;;;;;5064514;28;20658;-83
2022/05/01 09:06:54;;;;;;;8.33;6.57;;;;;;;;;;5063616;28;20240;-81
2022/05/01 09:09:22;;;;;;;8.80;7.20;;;;;;;;;;5061871;28;20702;-81
2022/05/01 09:14:37;;;;;;;9.37;6.60;;;;;;;;;;5068539;28;20236;-81
2022/05/01 09:17:14;;;;;;;7.37;6.53;;;;;;;;;;5068633;28;20293;-84
2022/05/01 09:19:41;;;;;;;8.70;7.17;;;;;;;;;;5067678;28;20293;-81
2022/05/01 09:22:08;;;;;;;6.60;6.00;;;;;;;;;;5067982;28;20297;-83
2022/05/01 09:24:35;;;;;;;11.80;6.33;;;;;;;;;;5067075;28;20234;-81
2022/05/01 09:27:02;;;;;;;7.83;6.47;;;;;;;;;;5067748;28;20230;-83
2022/05/01 09:29:32;;;;;;;9.20;6.57;;;;;;;;;;5066997;28;20233;-81
2022/05/01 09:32:03;;;;;;;9.00;6.30;;;;;;;;;;5067672;28;20264;-81
2022/05/01 09:34:31;;;;;;;7.93;6.30;;;;;;;;;;5066318;28;20236;-81
2022/05/01 09:36:59;;;;;;;6.87;6.23;;;;;;;;;;5065514;28;20229;-81
2022/05/01 09:39:27;;;;;;;8.10;6.47;;;;;;;;;;5063881;28;20233;-82
2022/05/01 09:41:54;;;;;;;8.35;6.30;;;;;;;;;;5065008;28;20210;-81
2022/05/01 09:44:22;;;;;;;10.40;7.50;;;;;;;;;;5063565;28;20235;-82
2022/05/01 09:46:51;;;;;;;8.52;6.25;;;;;;;;;;5063609;28;20226;-81
2022/05/01 09:49:20;;;;;;;8.13;6.20;;;;;;;;;;5065038;28;20238;-81
2022/05/01 09:51:47;;;;;;;9.68;7.13;;;;;;;;;;5062865;28;20713;-84
2022/05/01 09:54:21;;;;;;;6.82;5.68;;;;;;;;;;5059422;28;20234;-83
2022/05/01 09:56:48;;;;;;;8.30;7.03;;;;;;;;;;5060087;28;20230;-82
2022/05/01 09:59:16;;;;;;;13.75;6.63;;;;;;;;;;5059037;28;20229;-83
2022/05/01 10:01:55;;;;;;;7.38;6.68;;;;;;;;;;5058392;28;20214;-85
2022/05/01 10:04:24;;;;;;;9.25;6.60;;;;;;;;;;5056034;28;20774;-83
2022/05/01 10:09:24;;;;;;;7.75;6.30;;;;;;;;;;5070668;28;20240;-86
2022/05/01 10:11:54;;;;;;;9.50;6.10;;;;;;;;;;5080663;28;20206;-87
2022/05/01 10:14:22;;;;;;;10.00;6.35;;;;;;;;;;5083903;28;20229;-86
2022/05/01 10:16:49;;;;;;;8.82;6.35;;;;;;;;;;5082199;28;20288;-86
2022/05/01 10:19:17;;;;;;;9.05;6.45;;;;;;;;;;5058663;28;20250;-86
2022/05/01 10:21:47;;;;;;;9.15;6.60;;;;;;;;;;5056964;28;20214;-86
2022/05/01 10:24:15;;;;;;;7.97;6.63;;;;;;;;;;5055764;28;20257;-86
2022/05/01 10:26:52;;;;;;;8.05;6.15;;;;;;;;;;5056126;28;20209;-86
2022/05/01 10:29:40;;;;;;;8.93;7.07;;;;;;;;;;5057015;28;20230;-84
2022/05/01 10:32:22;;;;;;;8.07;6.55;;;;;;;;;;5059202;28;20210;-84
2022/05/01 10:34:57;;;;;;;8.45;6.68;;;;;;;;;;5058131;28;20244;-86
2022/05/01 10:37:37;;;;;;;8.77;6.90;;;;;;;;;;5057004;28;20225;-86
2022/05/01 10:40:06;;;;;;;7.43;6.35;;;;;;;;;;5057227;28;20321;-86
2022/05/01 10:42:34;;;;;;;8.63;6.55;;;;;;;;;;5056533;28;20232;-84
2022/05/01 10:45:01;;;;;;;9.15;7.05;;;;;;;;;;5054244;28;20655;-84
2022/05/01 10:47:36;;;;;;;7.78;6.38;;;;;;;;;;5055311;28;20226;-84
2022/05/01 10:50:08;;;;;;;10.27;7.00;;;;;;;;;;5054450;28;20236;-83
2022/05/01 10:52:57;;;;;;;7.75;6.45;;;;;;;;;;5054826;28;20193;-84
2022/05/01 10:55:24;;;;;;;6.68;5.93;;;;;;;;;;5053964;28;20234;-85
2022/05/01 10:58:06;;;;;;;8.25;6.18;;;;;;;;;;5054859;28;20229;-84
2022/05/01 11:00:45;;;;;;;7.72;6.50;;;;;;;;;;5053074;28;20237;-84
2022/05/01 11:03:22;;;;;;;11.68;7.80;;;;;;;;;;5054458;28;20205;-85
2022/05/01 11:05:54;;;;;;;26.70;17.83;;;;;;;;;;5053737;28;20723;-84
2022/05/01 11:08:25;;;;;;;11.32;8.63;;;;;;;;;;5054298;28;20287;-86
2022/05/01 11:10:54;;;;;;;13.93;8.90;;;;;;;;;;5053866;28;20238;-84
2022/05/01 11:13:23;;;;;;;11.05;6.35;;;;;;;;;;5054083;28;20662;-85
2022/05/01 11:15:51;;;;;;;7.90;6.00;;;;;;;;;;5054175;28;20265;-83
2022/05/01 11:18:28;;;;;;;9.80;6.60;;;;;;;;;;5054528;28;20705;-85
2022/05/01 11:20:55;;;;;;;6.65;5.78;;;;;;;;;;5054031;28;20234;-85
2022/05/01 11:23:31;;;;;;;8.82;5.55;;;;;;;;;;5053807;28;20262;-85
2022/05/01 11:26:13;;;;;;;7.40;5.70;;;;;;;;;;5054283;28;20229;-85
2022/05/01 11:28:47;;;;;;;7.38;5.63;;;;;;;;;;5069439;28;20222;-85
2022/05/01 11:31:33;;;;;;;6.40;5.43;;;;;;;;;;5068407;28;20209;-86
2022/05/01 11:34:19;;;;;;;8.55;5.88;;;;;;;;;;5065400;28;20237;-85
2022/05/01 11:36:53;;;;;;;7.95;5.53;;;;;;;;;;5052705;28;20230;-85
2022/05/01 11:39:22;;;;;;;8.55;5.60;;;;;;;;;;5053116;28;20316;-84
2022/05/01 11:42:00;;;;;;;5.85;5.25;;;;;;;;;;5053515;28;20213;-84
2022/05/01 11:44:28;;;;;;;7.50;5.72;;;;;;;;;;5052536;28;20322;-84
2022/05/01 11:46:55;;;;;;;7.13;5.65;;;;;;;;;;5052849;28;20217;-84
2022/05/01 11:49:22;;;;;;;6.85;5.05;;;;;;;;;;5052263;28;20245;-84
2022/05/01 11:51:49;;;;;;;7.25;5.07;;;;;;;;;;5053087;28;20209;-85
2022/05/01 11:54:17;;;;;;;5.75;5.13;;;;;;;;;;5051419;28;20240;-85
2022/05/01 12:02:26;;;;;;;9.30;5.70;;;;;;;;;;5055868;28;20181;-84
2022/05/01 12:04:59;;;;;;;7.05;5.55;;;;;;;;;;5053921;28;20240;-84
2022/05/01 12:07:27;;;;;;;6.85;5.72;;;;;;;;;;5053716;28;20287;-85
2022/05/01 12:09:55;;;;;;;6.22;5.63;;;;;;;;;;5052846;28;20233;-85
2022/05/01 12:12:28;;;;;;;6.20;5.60;;;;;;;;;;5055943;28;20288;-86
2022/05/01 12:14:55;;;;;;;6.72;6.03;;;;;;;;;;5052683;28;20240;-85
2022/05/01 12:17:22;;;;;;;6.72;5.35;;;;;;;;;;5052959;28;20228;-85
2022/05/01 12:19:55;;;;;;;9.35;5.57;;;;;;;;;;5052207;28;20260;-85
2022/05/01 12:22:23;;;;;;;7.53;6.15;;;;;;;;;;5052850;28;20186;-87
2022/05/01 12:24:51;;;;;;;5.97;5.22;;;;;;;;;;5052025;28;20243;-85
2022/05/01 12:27:19;;;;;;;7.35;5.53;;;;;;;;;;5052648;28;20226;-85
2022/05/01 12:29:49;;;;;;;8.43;5.90;;;;;;;;;;5051759;28;20265;-86
2022/05/01 12:32:18;;;;;;;7.07;5.53;;;;;;;;;;5052926;28;20201;-84
2022/05/01 12:34:56;;;;;;;8.60;5.55;;;;;;;;;;5051904;28;20253;-85
2022/05/01 12:37:24;;;;;;;6.60;5.15;;;;;;;;;;5052080;28;20705;-85
2022/05/01 12:39:57;;;;;;;11.82;5.50;;;;;;;;;;5051834;28;20233;-84
2022/05/01 12:45:12;;;;;;;6.72;5.55;;;;;;;;;;5051723;28;20287;-84
2022/05/01 12:47:39;;;;;;;6.95;6.10;;;;;;;;;;5052060;28;20620;-84
2022/05/01 12:50:08;;;;;;;8.13;6.30;;;;;;;;;;5055442;28;20229;-84
2022/05/01 12:52:36;;;;;;;7.60;5.90;;;;;;;;;;5057159;28;20638;-85
2022/05/01 12:55:06;;;;;;;6.88;5.05;;;;;;;;;;5056433;28;20570;-85
2022/05/01 12:57:33;;;;;;;5.97;5.38;;;;;;;;;;5056306;28;20233;-84
2022/05/01 13:00:01;;;;;;;6.25;5.15;;;;;;;;;;5056451;28;20233;-84
2022/05/01 13:02:29;;;;;;;9.77;5.65;;;;;;;;;;5057002;28;20194;-85
2022/05/01 13:05:00;;;;;;;6.38;5.68;;;;;;;;;;5056192;28;20229;-84
2022/05/01 13:07:30;;;;;;;8.15;5.03;;;;;;;;;;5056566;28;20238;-85
2022/05/01 13:09:57;;;;;;;6.78;5.00;;;;;;;;;;5054672;28;20238;-86
2022/05/01 13:12:31;;;;;;;10.40;5.88;;;;;;;;;;5058326;28;20240;-87
2022/05/01 13:14:59;;;;;;;8.50;6.15;;;;;;;;;;5067915;28;20236;-87
2022/05/01 13:17:28;;;;;;;7.13;5.85;;;;;;;;;;5067192;28;20234;-86
2022/05/01 13:19:57;;;;;;;6.20;5.60;;;;;;;;;;5056655;28;20661;-86
2022/05/01 13:22:24;;;;;;;7.65;5.25;;;;;;;;;;5056420;28;20202;-87
2022/05/01 13:24:55;;;;;;;7.40;5.07;;;;;;;;;;5055236;28;20709;-86
2022/05/01 13:27:23;;;;;;;6.78;5.40;;;;;;;;;;5056199;28;20561;-87
2022/05/01 13:29:50;;;;;;;8.07;5.85;;;;;;;;;;5055211;28;20273;-86
2022/05/01 13:32:18;;;;;;;6.60;5.30;;;;;;;;;;5055608;28;20217;-86
2022/05/01 13:34:46;;;;;;;7.40;6.20;;;;;;;;;;5043222;28;20644;-86
2022/05/01 13:37:14;;;;;;;7.50;5.20;;;;;;;;;;5058773;28;20220;-85
2022/05/01 13:45:13;;;;;;;8.73;5.57;;;;;;;;;;5054628;28;20237;-85
2022/05/01 13:47:40;;;;;;;8.35;5.43;;;;;;;;;;5057247;28;20233;-85
2022/05/01 13:50:08;;;;;;;6.18;5.57;;;;;;;;;;5055614;28;20234;-85
2022/05/01 13:52:36;;;;;;;7.70;5.32;;;;;;;;;;5056639;28;20233;-85
2022/05/01 13:55:03;;;;;;;6.10;5.35;;;;;;;;;;5054344;28;20744;-86
2022/05/01 13:57:31;;;;;;;7.18;4.85;;;;;;;;;;5055449;28;20233;-85
2022/05/01 13:59:58;;;;;;;6.22;5.22;;;;;;;;;;5054878;28;20234;-85
2022/05/01 14:02:25;;;;;;;6.03;5.43;;;;;;;;;;5053927;28;20566;-85
2022/05/01 14:04:52;;;;;;;6.05;5.45;;;;;;;;;;5053510;28;20237;-84
2022/05/01 14:07:20;;;;;;;6.00;5.03;;;;;;;;;;5018648;28;1020861;-85
2022/05/01 14:09:48;;;;;;;8.85;4.78;;;;;;;;;;5054620;28;20233;-85
2022/05/01 14:12:15;;;;;;;6.15;5.40;;;;;;;;;;5055633;28;20210;-85
2022/05/01 14:14:45;;;;;;;6.90;5.50;;;;;;;;;;5054879;28;20609;-85
2022/05/01 14:17:13;;;;;;;6.68;6.13;;;;;;;;;;5055058;28;20312;-86
2022/05/01 14:19:41;;;;;;;5.82;5.22;;;;;;;;;;5054334;28;20680;-86
2022/05/01 14:22:08;;;;;;;6.18;5.30;;;;;;;;;;5058946;28;20240;-86
2022/05/01 14:24:35;;;;;;;10.20;5.63;;;;;;;;;;5054852;28;20255;-85
2022/05/01 14:27:04;;;;;;;5.85;5.25;;;;;;;;;;5056043;28;20824;-87
2022/05/01 14:29:31;;;;;;;8.45;5.57;;;;;;;;;;5054424;28;20718;-87
2022/05/01 14:32:01;;;;;;;8.65;5.15;;;;;;;;;;5055115;28;20650;-86
2022/05/01 14:34:42;;;;;;;6.60;5.32;;;;;;;;;;5054647;28;20257;-86
2022/05/01 14:37:11;;;;;;;6.47;4.82;;;;;;;;;;5054439;28;20236;-87
2022/05/01 14:39:40;;;;;;;5.88;5.28;;;;;;;;;;5054245;28;20234;-86
2022/05/01 14:42:13;;;;;;;6.55;4.90;;;;;;;;;;5054960;28;20206;-88
2022/05/01 14:44:46;;;;;;;8.40;5.80;;;;;;;;;;5054376;28;20321;-87
2022/05/01 14:47:15;;;;;;;7.43;5.35;;;;;;;;;;5054917;28;20633;-86
2022/05/01 14:49:51;;;;;;;10.43;6.25;;;;;;;;;;5053768;28;20238;-86
2022/05/01 14:52:19;;;;;;;7.60;6.18;;;;;;;;;;5054648;28;20185;-86
2022/05/01 14:54:48;;;;;;;8.68;6.10;;;;;;;;;;5054209;28;20295;-85
2022/05/01 14:57:20;;;;;;;7.00;5.90;;;;;;;;;;5054688;28;20262;-85
2022/05/01 15:08:32;;;;;;;6.65;5.63;;;;;;;;;;4972626;28;20296;-86
2022/05/01 15:10:59;;;;;;;7.32;5.22;;;;;;;;;;5017443;28;20237;-86
2022/05/01 15:13:28;;;;;;;6.15;5.45;;;;;;;;;;5054072;28;20206;-85
2022/05/01 15:16:02;;;;;;;7.65;5.35;;;;;;;;;;5053238;28;20265;-87
2022/05/01 15:18:35;;;;;;;8.52;5.88;;;;;;;;;;5053990;28;20222;-87
2022/05/01 15:21:04;;;;;;;6.90;5.93;;;;;;;;;;5044265;28;20225;-87
2022/05/01 15:23:34;;;;;;;7.45;5.68;;;;;;;;;;5053667;28;20592;-87
2022/05/01 15:26:02;;;;;;;7.25;5.50;;;;;;;;;;5053134;28;20705;-86
2022/05/01 15:28:32;;;;;;;7.40;5.78;;;;;;;;;;5053620;28;20225;-87
2022/05/01 15:31:06;;;;;;;5.95;5.35;;;;;;;;;;5053867;28;20265;-89